createdAt,value
2023-05-17T00:00:00.918Z,6.78
2023-05-17T00:02:28.417Z,6.82
2023-05-17T00:04:56.143Z,6.87
2023-05-17T00:07:25.107Z,6.84
2023-05-17T00:09:52.616Z,6.76
2023-05-17T00:12:19.994Z,6.74
2023-05-17T00:14:47.396Z,6.71
2023-05-17T00:17:14.984Z,6.69
2023-05-17T00:19:42.399Z,6.66
2023-05-17T00:22:09.878Z,6.58
2023-05-17T00:24:38.653Z,6.55
2023-05-17T00:27:06.156Z,6.45
2023-05-17T00:29:33.627Z,6.38
2023-05-17T00:32:01.034Z,6.37
2023-05-17T00:34:28.588Z,6.31
2023-05-17T00:36:56.070Z,6.30
2023-05-17T00:39:23.757Z,6.26
2023-05-17T00:41:52.526Z,6.26
2023-05-17T00:44:19.759Z,6.20
2023-05-17T00:46:47.185Z,6.17
2023-05-17T00:49:14.672Z,6.16
2023-05-17T00:51:42.475Z,6.10
2023-05-17T00:54:11.084Z,6.09
2023-05-17T00:56:39.015Z,6.02
2023-05-17T00:59:08.774Z,5.98
2023-05-17T01:01:37.922Z,5.99
2023-05-17T01:04:07.253Z,5.99
2023-05-17T01:06:35.477Z,5.98
2023-05-17T01:09:03.584Z,5.96
2023-05-17T01:11:38.692Z,5.93
2023-05-17T01:14:18.484Z,5.88
2023-05-17T01:16:51.559Z,5.79
2023-05-17T01:19:40.546Z,5.77
2023-05-17T01:22:16.134Z,5.67
2023-05-17T01:24:50.770Z,5.68
2023-05-17T01:27:22.052Z,5.69
2023-05-17T01:29:50.796Z,5.64
2023-05-17T01:32:18.956Z,5.60
2023-05-17T01:34:46.646Z,5.55
2023-05-17T01:37:14.098Z,5.43
2023-05-17T01:39:41.647Z,5.42
2023-05-17T01:42:20.654Z,5.37
2023-05-17T01:44:59.981Z,5.32
2023-05-17T01:47:36.826Z,5.27
2023-05-17T01:50:06.913Z,5.22
2023-05-17T01:52:38.495Z,5.23
2023-05-17T01:55:10.968Z,5.26
2023-05-17T01:57:43.538Z,5.23
2023-05-17T02:00:14.764Z,5.14
2023-05-17T02:02:45.019Z,5.02
2023-05-17T02:05:12.656Z,4.98
2023-05-17T02:07:42.993Z,4.88
2023-05-17T02:10:11.111Z,4.87
2023-05-17T02:12:42.348Z,4.87
2023-05-17T02:15:11.992Z,4.88
2023-05-17T02:17:41.846Z,4.80
2023-05-17T02:20:10.454Z,4.78
2023-05-17T02:22:37.954Z,4.76
2023-05-17T02:25:06.758Z,4.71
2023-05-17T02:27:34.375Z,4.59
2023-05-17T02:30:02.197Z,4.63
2023-05-17T02:32:29.975Z,4.57
2023-05-17T02:34:59.461Z,4.54
2023-05-17T02:37:26.938Z,4.47
2023-05-17T02:39:54.431Z,4.47
2023-05-17T02:42:21.864Z,4.46
2023-05-17T02:44:52.895Z,4.43
2023-05-17T02:47:23.589Z,4.39
2023-05-17T02:49:51.102Z,4.38
2023-05-17T02:52:20.174Z,4.34
2023-05-17T02:54:47.992Z,4.25
2023-05-17T02:57:15.647Z,4.15
2023-05-17T02:59:43.105Z,4.06
2023-05-17T03:02:10.792Z,4.03
2023-05-17T03:04:38.478Z,4.05
2023-05-17T03:07:07.375Z,4.08
2023-05-17T03:09:37.354Z,4.11
2023-05-17T03:12:06.255Z,4.05
2023-05-17T03:14:35.267Z,4.13
2023-05-17T03:17:03.255Z,4.13
2023-05-17T03:19:32.006Z,4.11
2023-05-17T03:21:59.666Z,4.04
2023-05-17T03:24:27.311Z,4.01
2023-05-17T03:26:56.382Z,4.06
2023-05-17T03:29:23.884Z,3.98
2023-05-17T03:31:51.848Z,4.00
2023-05-17T03:34:19.363Z,3.94
2023-05-17T03:36:46.831Z,4.03
2023-05-17T03:39:14.251Z,3.94
2023-05-17T03:41:43.122Z,3.82
2023-05-17T03:44:12.685Z,3.86
2023-05-17T03:46:40.053Z,3.86
2023-05-17T03:49:07.606Z,3.89
2023-05-17T03:51:35.911Z,3.85
2023-05-17T03:54:03.640Z,3.87
2023-05-17T03:56:31.621Z,3.94
2023-05-17T03:58:59.249Z,3.98
2023-05-17T04:01:28.579Z,3.96
2023-05-17T04:03:56.279Z,3.85
2023-05-17T04:06:24.331Z,3.87
2023-05-17T04:08:55.032Z,3.87
2023-05-17T04:11:24.343Z,3.92
2023-05-17T04:13:51.904Z,3.91
2023-05-17T04:16:19.941Z,3.95
2023-05-17T04:18:52.796Z,3.87
2023-05-17T04:21:20.719Z,3.89
2023-05-17T04:23:48.713Z,3.89
2023-05-17T04:26:17.047Z,3.95
2023-05-17T04:28:44.522Z,3.99
2023-05-17T04:31:14.297Z,4.12
2023-05-17T04:33:42.897Z,4.10
2023-05-17T04:36:12.403Z,4.13
2023-05-17T04:38:40.806Z,4.25
2023-05-17T04:41:11.431Z,4.31
2023-05-17T04:43:40.431Z,4.31
2023-05-17T04:46:13.441Z,4.35
2023-05-17T04:48:41.568Z,4.38
2023-05-17T04:51:11.839Z,4.48
2023-05-17T04:53:39.680Z,4.57
2023-05-17T04:56:11.730Z,4.67
2023-05-17T04:58:39.139Z,4.73
2023-05-17T05:01:07.657Z,4.82
2023-05-17T05:03:36.672Z,4.90
2023-05-17T05:06:06.586Z,4.99
2023-05-17T05:08:35.943Z,5.06
2023-05-17T05:11:05.184Z,5.17
2023-05-17T05:13:32.863Z,5.25
2023-05-17T05:16:00.875Z,5.35
2023-05-17T05:18:29.282Z,5.43
2023-05-17T05:20:57.674Z,5.49
2023-05-17T05:23:26.226Z,5.57
2023-05-17T05:25:55.225Z,5.65
2023-05-17T05:28:22.651Z,5.64
2023-05-17T05:30:50.174Z,5.70
2023-05-17T05:33:17.716Z,5.81
2023-05-17T05:35:47.312Z,5.94
2023-05-17T05:38:14.960Z,6.10
2023-05-17T05:40:42.585Z,6.28
2023-05-17T05:43:11.774Z,6.37
2023-05-17T05:45:45.623Z,6.42
2023-05-17T05:48:13.250Z,6.47
2023-05-17T05:50:42.927Z,6.49
2023-05-17T05:53:19.054Z,6.57
2023-05-17T05:55:52.372Z,6.67
2023-05-17T05:58:22.077Z,6.82
2023-05-17T06:00:50.726Z,6.97
2023-05-17T06:03:18.348Z,7.06
2023-05-17T06:05:45.891Z,7.27
2023-05-17T06:08:13.336Z,7.50
2023-05-17T06:10:40.835Z,7.71
2023-05-17T06:13:08.262Z,7.91
2023-05-17T06:15:37.083Z,7.96
2023-05-17T06:18:04.682Z,8.08
2023-05-17T06:20:32.417Z,8.09
2023-05-17T06:23:00.123Z,8.18
2023-05-17T06:25:27.620Z,8.36
2023-05-17T06:27:55.059Z,8.59
2023-05-17T06:30:22.613Z,8.64
2023-05-17T06:32:51.450Z,8.75
2023-05-17T06:35:19.348Z,8.72
2023-05-17T06:37:46.812Z,8.54
2023-05-17T06:40:16.587Z,8.72
2023-05-17T06:42:44.712Z,9.07
2023-05-17T06:45:13.230Z,9.13
2023-05-17T06:47:41.327Z,9.28
2023-05-17T06:50:10.928Z,9.29
2023-05-17T06:52:38.658Z,9.32
2023-05-17T06:55:07.651Z,9.20
2023-05-17T06:57:36.079Z,9.37
2023-05-17T07:00:06.778Z,9.05
2023-05-17T07:02:34.864Z,9.16
2023-05-17T07:05:02.775Z,9.32
2023-05-17T07:07:31.866Z,9.74
2023-05-17T07:09:59.292Z,9.55
2023-05-17T07:12:26.850Z,9.48
2023-05-17T07:14:54.226Z,9.65
2023-05-17T07:17:21.680Z,9.77
2023-05-17T07:19:51.084Z,10.03
2023-05-17T07:22:18.909Z,10.16
2023-05-17T07:24:47.775Z,10.42
2023-05-17T07:27:18.291Z,10.49
2023-05-17T07:29:45.986Z,10.28
2023-05-17T07:32:14.083Z,10.37
2023-05-17T07:34:41.639Z,10.85
2023-05-17T07:37:09.107Z,10.71
2023-05-17T07:39:36.624Z,11.16
2023-05-17T07:42:06.525Z,11.32
2023-05-17T07:44:34.092Z,11.27
2023-05-17T07:47:01.995Z,11.06
2023-05-17T07:49:30.885Z,10.76
2023-05-17T07:51:58.557Z,10.82
2023-05-17T07:54:27.363Z,10.74
2023-05-17T07:56:55.630Z,11.13
2023-05-17T07:59:24.641Z,11.10
2023-05-17T08:01:52.589Z,11.56
2023-05-17T08:04:20.168Z,11.54
2023-05-17T08:06:49.520Z,11.74
2023-05-17T08:09:17.232Z,12.22
2023-05-17T08:11:47.832Z,11.74
2023-05-17T08:14:16.045Z,11.51
2023-05-17T08:16:46.017Z,11.83
2023-05-17T08:19:14.989Z,11.39
2023-05-17T08:21:43.172Z,11.86
2023-05-17T08:24:11.554Z,12.30
2023-05-17T08:26:39.266Z,12.79
2023-05-17T08:29:06.846Z,13.66
2023-05-17T08:31:34.310Z,13.90
2023-05-17T08:34:03.435Z,14.26
2023-05-17T08:36:31.196Z,13.87
2023-05-17T08:38:58.671Z,13.88
2023-05-17T08:41:26.234Z,12.91
2023-05-17T08:43:55.325Z,13.67
2023-05-17T08:46:23.778Z,13.82
2023-05-17T08:48:53.120Z,14.30
2023-05-17T08:51:22.978Z,14.05
2023-05-17T08:53:50.872Z,14.69
2023-05-17T08:56:21.466Z,14.42
2023-05-17T08:58:57.163Z,15.34
2023-05-17T09:01:26.766Z,15.48
2023-05-17T09:03:55.215Z,15.67
2023-05-17T09:06:24.348Z,15.26
2023-05-17T09:08:55.379Z,15.68
2023-05-17T09:11:25.931Z,15.80
2023-05-17T09:13:53.628Z,15.12
2023-05-17T09:16:22.117Z,15.89
2023-05-17T09:18:59.433Z,15.29
2023-05-17T09:21:30.936Z,15.75
2023-05-17T09:24:06.172Z,16.22
2023-05-17T09:26:40.284Z,16.69
2023-05-17T09:29:12.092Z,15.57
2023-05-17T09:31:39.852Z,15.60
2023-05-17T09:34:08.281Z,17.02
2023-05-17T09:36:38.635Z,17.76
2023-05-17T09:39:07.876Z,17.96
2023-05-17T09:41:41.531Z,17.88
2023-05-17T09:44:09.929Z,17.88
2023-05-17T09:46:41.315Z,15.91
2023-05-17T09:49:09.420Z,15.48
2023-05-17T09:51:41.002Z,16.36
2023-05-17T09:54:10.026Z,16.94
2023-05-17T09:56:37.849Z,16.31
2023-05-17T09:59:12.028Z,16.46
2023-05-17T10:01:41.304Z,16.20
2023-05-17T10:04:10.249Z,16.59
2023-05-17T10:09:13.643Z,17.01
2023-05-17T10:11:45.982Z,18.29
2023-05-17T10:14:18.601Z,16.89
2023-05-17T10:16:46.980Z,18.15
2023-05-17T10:19:15.040Z,18.44
2023-05-17T10:21:44.709Z,18.65
2023-05-17T10:24:12.700Z,19.26
2023-05-17T10:26:40.266Z,18.03
2023-05-17T10:29:07.969Z,17.75
2023-05-17T10:31:36.572Z,18.07
2023-05-17T10:34:06.523Z,18.13
2023-05-17T10:36:34.341Z,17.51
2023-05-17T10:39:07.900Z,16.97
2023-05-17T10:41:37.351Z,17.10
2023-05-17T10:44:08.371Z,17.01
2023-05-17T10:46:36.941Z,17.13
2023-05-17T10:49:04.615Z,17.70
2023-05-17T10:51:35.187Z,17.44
2023-05-17T10:54:10.951Z,17.09
2023-05-17T10:56:47.107Z,15.65
2023-05-17T10:59:19.654Z,15.57
2023-05-17T11:02:04.460Z,17.06
2023-05-17T11:04:37.465Z,17.46
2023-05-17T11:07:32.679Z,18.51
2023-05-17T11:10:11.673Z,18.57
2023-05-17T11:12:41.854Z,17.46
2023-05-17T11:15:10.964Z,17.43
2023-05-17T11:17:50.748Z,16.91
2023-05-17T11:20:33.535Z,18.11
2023-05-17T11:23:04.068Z,19.56
2023-05-17T11:25:36.051Z,20.07
2023-05-17T11:28:08.302Z,18.99
2023-05-17T11:30:41.351Z,19.09
2023-05-17T11:33:20.606Z,20.27
2023-05-17T11:35:56.419Z,20.33
2023-05-17T11:38:30.191Z,18.99
2023-05-17T11:41:26.394Z,19.20
2023-05-17T11:43:55.367Z,19.19
2023-05-17T11:46:24.577Z,19.03
2023-05-17T11:48:53.160Z,17.51
2023-05-17T11:51:24.374Z,17.44
2023-05-17T11:53:55.444Z,17.73
2023-05-17T11:56:41.927Z,18.49
2023-05-17T11:59:10.944Z,19.05
2023-05-17T12:01:46.029Z,19.79
2023-05-17T12:04:14.083Z,18.16
2023-05-17T12:06:42.416Z,17.40
2023-05-17T12:09:10.713Z,17.24
2023-05-17T12:11:41.038Z,17.37
2023-05-17T12:14:08.575Z,17.00
2023-05-17T12:16:39.220Z,17.32
2023-05-17T12:19:17.226Z,18.15
2023-05-17T12:21:44.858Z,18.63
2023-05-17T12:24:12.700Z,18.03
2023-05-17T12:26:47.615Z,18.89
2023-05-17T12:29:15.950Z,17.61
2023-05-17T12:31:48.153Z,17.80
2023-05-17T12:34:17.242Z,18.18
2023-05-17T12:36:45.662Z,18.39
2023-05-17T12:39:14.493Z,18.01
2023-05-17T12:41:44.073Z,17.51
2023-05-17T12:44:15.645Z,17.26
2023-05-17T12:46:43.965Z,17.41
2023-05-17T12:49:14.892Z,17.52
2023-05-17T12:51:43.641Z,16.33
2023-05-17T12:54:12.443Z,16.02
2023-05-17T12:56:42.892Z,15.92
2023-05-17T12:59:16.686Z,16.67
2023-05-17T13:01:45.880Z,17.62
2023-05-17T13:04:14.781Z,17.51
2023-05-17T13:06:47.106Z,17.42
2023-05-17T13:09:15.407Z,16.99
2023-05-17T13:11:42.977Z,16.66
2023-05-17T13:14:12.690Z,16.89
2023-05-17T13:16:41.137Z,15.28
2023-05-17T13:19:13.585Z,16.19
2023-05-17T13:21:41.154Z,17.29
2023-05-17T13:24:09.998Z,17.31
2023-05-17T13:26:37.542Z,17.34
2023-05-17T13:29:05.020Z,16.50
2023-05-17T13:31:33.892Z,15.58
2023-05-17T13:34:01.672Z,15.49
2023-05-17T13:36:29.255Z,15.88
2023-05-17T13:38:56.868Z,15.57
2023-05-17T13:41:24.904Z,16.29
2023-05-17T13:43:52.418Z,16.35
2023-05-17T13:46:19.908Z,16.58
2023-05-17T13:48:48.910Z,16.19
2023-05-17T13:51:16.690Z,16.36
2023-05-17T13:53:44.673Z,15.74
2023-05-17T13:56:12.218Z,15.49
2023-05-17T13:58:39.786Z,15.85
2023-05-17T14:01:07.700Z,15.89
2023-05-17T14:03:36.247Z,15.99
2023-05-17T14:06:06.357Z,15.02
2023-05-17T14:08:34.387Z,15.17
2023-05-17T14:11:01.992Z,15.46
2023-05-17T14:13:29.435Z,15.03
2023-05-17T14:15:56.929Z,14.67
2023-05-17T14:18:24.476Z,14.39
2023-05-17T14:20:53.170Z,14.31
2023-05-17T14:23:22.054Z,14.29
2023-05-17T14:25:49.584Z,14.52
2023-05-17T14:28:18.097Z,14.19
2023-05-17T14:30:45.819Z,14.37
2023-05-17T14:33:13.337Z,14.88
2023-05-17T14:35:41.049Z,14.89
2023-05-17T14:38:08.536Z,15.28
2023-05-17T14:40:37.540Z,15.25
2023-05-17T14:43:05.274Z,14.64
2023-05-17T14:45:32.800Z,15.10
2023-05-17T14:48:00.288Z,15.06
2023-05-17T14:50:27.975Z,14.09
2023-05-17T14:52:55.576Z,13.74
2023-05-17T14:55:24.093Z,13.77
2023-05-17T14:57:53.441Z,13.75
2023-05-17T15:00:22.388Z,13.02
2023-05-17T15:02:50.532Z,13.20
2023-05-17T15:05:18.619Z,13.28
2023-05-17T15:07:47.477Z,13.14
2023-05-17T15:10:15.936Z,13.16
2023-05-17T15:12:43.254Z,13.20
2023-05-17T15:15:12.480Z,13.66
2023-05-17T15:17:40.057Z,13.82
2023-05-17T15:20:08.779Z,13.92
2023-05-17T15:22:36.665Z,14.02
2023-05-17T15:25:05.015Z,13.90
2023-05-17T15:27:32.342Z,14.02
2023-05-17T15:30:00.096Z,14.00
2023-05-17T15:32:29.045Z,13.75
2023-05-17T15:34:57.673Z,13.66
2023-05-17T15:37:25.147Z,13.44
2023-05-17T15:39:52.687Z,13.28
2023-05-17T15:42:20.170Z,13.64
2023-05-17T15:44:47.551Z,13.67
2023-05-17T15:47:15.048Z,14.01
2023-05-17T15:49:43.862Z,14.08
2023-05-17T15:52:12.685Z,14.22
2023-05-17T15:54:42.041Z,14.22
2023-05-17T15:57:09.820Z,14.23
2023-05-17T15:59:37.211Z,14.04
2023-05-17T16:02:04.876Z,13.76
2023-05-17T16:04:32.361Z,13.49
2023-05-17T16:07:01.115Z,13.37
2023-05-17T16:09:28.505Z,13.32
2023-05-17T16:11:56.202Z,13.26
2023-05-17T16:14:23.720Z,13.05
2023-05-17T16:16:51.229Z,12.74
2023-05-17T16:19:19.588Z,12.84
2023-05-17T16:21:50.368Z,12.96
2023-05-17T16:24:21.464Z,13.01
2023-05-17T16:26:48.938Z,12.89
2023-05-17T16:29:18.470Z,12.74
2023-05-17T16:31:48.008Z,12.97
2023-05-17T16:34:15.541Z,13.10
2023-05-17T16:36:47.272Z,13.03
2023-05-17T16:39:14.790Z,13.17
2023-05-17T16:41:43.628Z,12.94
2023-05-17T16:44:11.169Z,12.99
2023-05-17T16:46:38.767Z,13.01
2023-05-17T16:49:07.202Z,13.07
2023-05-17T16:51:34.529Z,12.98
2023-05-17T16:54:02.098Z,13.22
2023-05-17T16:56:29.717Z,13.15
2023-05-17T16:58:58.592Z,12.94
2023-05-17T17:01:26.053Z,12.69
2023-05-17T17:03:53.599Z,12.51
2023-05-17T17:06:21.211Z,12.40
2023-05-17T17:08:48.784Z,12.51
2023-05-17T17:11:19.959Z,12.62
2023-05-17T17:13:48.202Z,12.68
2023-05-17T17:16:17.644Z,12.63
2023-05-17T17:18:47.053Z,13.08
2023-05-17T17:21:14.636Z,13.36
2023-05-17T17:23:43.188Z,13.85
2023-05-17T17:26:13.581Z,14.18
2023-05-17T17:28:41.471Z,13.89
2023-05-17T17:31:09.286Z,13.47
2023-05-17T17:33:38.123Z,13.46
2023-05-17T17:36:08.890Z,13.38
2023-05-17T17:38:36.359Z,13.38
2023-05-17T17:41:03.946Z,13.36
2023-05-17T17:43:31.391Z,13.31
2023-05-17T17:45:58.880Z,13.27
2023-05-17T17:48:26.354Z,13.00
2023-05-17T17:50:55.728Z,12.97
2023-05-17T17:53:23.427Z,13.04
2023-05-17T17:55:51.132Z,12.94
2023-05-17T17:58:18.663Z,13.01
2023-05-17T18:00:46.148Z,12.63
2023-05-17T18:03:13.692Z,12.51
2023-05-17T18:05:41.324Z,12.67
2023-05-17T18:08:10.057Z,12.80
2023-05-17T18:10:37.559Z,12.82
2023-05-17T18:13:04.939Z,12.67
2023-05-17T18:15:32.367Z,12.71
2023-05-17T18:17:59.916Z,12.73
2023-05-17T18:20:27.738Z,12.63
2023-05-17T18:22:55.321Z,12.49
2023-05-17T18:25:24.388Z,12.43
2023-05-17T18:27:51.840Z,12.39
2023-05-17T18:30:19.560Z,12.29
2023-05-17T18:32:47.043Z,12.17
2023-05-17T18:35:14.614Z,12.10
2023-05-17T18:37:42.159Z,12.05
2023-05-17T18:40:10.713Z,11.98
2023-05-17T18:42:39.479Z,11.89
2023-05-17T18:45:07.876Z,11.76
2023-05-17T18:47:35.169Z,11.71
2023-05-17T18:50:02.678Z,11.61
2023-05-17T18:52:30.903Z,11.49
2023-05-17T18:54:58.356Z,11.34
2023-05-17T18:57:26.129Z,11.27
2023-05-17T18:59:54.985Z,11.09
2023-05-17T19:02:22.579Z,11.06
2023-05-17T19:04:50.287Z,10.89
2023-05-17T19:07:18.191Z,10.81
2023-05-17T19:09:46.312Z,10.74
2023-05-17T19:12:13.849Z,10.65
2023-05-17T19:14:41.494Z,10.49
2023-05-17T19:17:13.194Z,10.33
2023-05-17T19:19:43.561Z,10.28
2023-05-17T19:22:14.437Z,10.17
2023-05-17T19:24:43.345Z,10.14
2023-05-17T19:27:16.832Z,10.06
2023-05-17T19:29:44.318Z,9.93
2023-05-17T19:32:13.609Z,9.82
2023-05-17T19:34:41.373Z,9.70
2023-05-17T19:37:08.878Z,9.67
2023-05-17T19:39:38.739Z,9.56
2023-05-17T19:42:08.971Z,9.44
2023-05-17T19:44:36.701Z,9.27
2023-05-17T19:47:07.286Z,9.19
2023-05-17T19:49:36.210Z,9.13
2023-05-17T19:52:04.201Z,9.05
2023-05-17T19:54:31.770Z,8.96
2023-05-17T19:57:00.947Z,8.94
2023-05-17T19:59:32.608Z,8.88
2023-05-17T20:02:02.244Z,8.81
2023-05-17T20:04:29.969Z,8.72
2023-05-17T20:07:01.625Z,8.71
2023-05-17T20:09:32.044Z,8.59
2023-05-17T20:11:59.797Z,8.51
2023-05-17T20:14:27.586Z,8.44
2023-05-17T20:16:58.044Z,8.40
2023-05-17T20:19:26.273Z,8.34
2023-05-17T20:21:53.891Z,8.32
2023-05-17T20:24:24.709Z,8.18
2023-05-17T20:26:52.184Z,8.12
2023-05-17T20:29:19.813Z,8.13
2023-05-17T20:31:47.515Z,8.07
2023-05-17T20:34:15.087Z,7.95
2023-05-17T20:36:42.598Z,7.96
2023-05-17T20:39:12.031Z,7.93
2023-05-17T20:41:41.275Z,7.84
2023-05-17T20:44:11.241Z,7.83
2023-05-17T20:46:38.757Z,7.80
2023-05-17T20:49:09.789Z,7.78
2023-05-17T20:51:37.434Z,7.71
2023-05-17T20:54:06.196Z,7.68
2023-05-17T20:56:34.969Z,7.59
2023-05-17T20:59:03.882Z,7.61
2023-05-17T21:01:34.762Z,7.46
2023-05-17T21:04:02.404Z,7.41
2023-05-17T21:06:34.267Z,7.38
2023-05-17T21:09:02.440Z,7.36
2023-05-17T21:11:30.297Z,7.29
2023-05-17T21:14:00.587Z,7.26
2023-05-17T21:16:35.362Z,7.21
2023-05-17T21:19:03.158Z,7.26
2023-05-17T21:21:32.416Z,7.18
2023-05-17T21:24:00.157Z,7.02
2023-05-17T21:29:04.362Z,7.00
2023-05-17T21:31:33.222Z,6.96
2023-05-17T21:34:00.822Z,6.91
2023-05-17T21:36:31.471Z,6.87
2023-05-17T21:38:59.026Z,6.84
2023-05-17T21:41:29.304Z,6.81
2023-05-17T21:43:57.062Z,6.74
2023-05-17T21:46:24.588Z,6.72
2023-05-17T21:48:53.726Z,6.60
2023-05-17T21:51:22.027Z,6.59
2023-05-17T21:53:52.299Z,6.57
2023-05-17T21:56:19.884Z,6.49
2023-05-17T21:58:47.342Z,6.41
2023-05-17T22:01:15.088Z,6.29
2023-05-17T22:03:42.677Z,6.25
2023-05-17T22:06:11.768Z,6.14
2023-05-17T22:08:42.242Z,6.12
2023-05-17T22:11:11.001Z,6.09
2023-05-17T22:13:38.400Z,6.05
2023-05-17T22:16:06.582Z,6.03
2023-05-17T22:18:35.250Z,6.03
2023-05-17T22:21:02.826Z,6.00
2023-05-17T22:23:31.742Z,5.94
2023-05-17T22:26:00.618Z,5.93
2023-05-17T22:28:28.572Z,5.86
2023-05-17T22:30:56.211Z,5.84
2023-05-17T22:33:23.785Z,5.72
2023-05-17T22:35:53.615Z,5.63
2023-05-17T22:38:23.302Z,5.58
2023-05-17T22:40:52.382Z,5.56
2023-05-17T22:43:22.794Z,5.57
2023-05-17T22:45:52.193Z,5.54
2023-05-17T22:48:22.501Z,5.55
2023-05-17T22:50:50.506Z,5.50
2023-05-17T22:53:19.077Z,5.45
2023-05-17T22:55:48.861Z,5.41
2023-05-17T22:58:17.964Z,5.35
2023-05-17T23:00:45.603Z,5.34
2023-05-17T23:03:13.298Z,5.36
2023-05-17T23:05:41.439Z,5.41
2023-05-17T23:08:09.849Z,5.39
2023-05-17T23:10:37.834Z,5.37
2023-05-17T23:13:05.578Z,5.34
2023-05-17T23:15:37.119Z,5.34
2023-05-17T23:18:04.716Z,5.28
2023-05-17T23:20:32.369Z,5.23
2023-05-17T23:23:01.609Z,5.21
2023-05-17T23:25:29.697Z,5.19
2023-05-17T23:27:58.093Z,5.19
2023-05-17T23:30:26.409Z,5.03
2023-05-17T23:32:55.559Z,5.02
2023-05-17T23:35:23.539Z,4.97
2023-05-17T23:37:51.395Z,4.94
2023-05-17T23:40:19.358Z,4.96
2023-05-17T23:42:46.909Z,4.92
2023-05-17T23:45:14.531Z,4.94
2023-05-17T23:47:42.019Z,4.93
2023-05-17T23:50:11.847Z,4.91
2023-05-17T23:52:39.535Z,4.93
2023-05-17T23:55:07.748Z,4.89
2023-05-17T23:57:35.535Z,4.93
